Time;durP1;ratioP1;P1;durP2;ratioP2;P2;SDS_P1;SDS_P2;PMS_P1;PMS_P2;Temp;Humidity;BMP_temperature;BMP_pressure;BME280_temperature;BME280_humidity;BME280_pressure;Samples;Min_cycle;Max_cycle;Signal;HPM_P1;HPM_P2
2021/06/27 00:00:31;;;;;;;6.78;5.32;;;20.20;71.50;;;;;;5078282;28;20463;-73
2021/06/27 00:03:01;;;;;;;5.97;5.38;;;20.20;71.50;;;;;;5078065;28;20056;-73
2021/06/27 00:05:30;;;;;;;5.13;4.63;;;20.20;71.50;;;;;;5077838;28;20056;-74
2021/06/27 00:07:56;;;;;;;6.07;5.30;;;20.20;71.50;;;;;;5077760;28;20075;-72
2021/06/27 00:10:32;;;;;;;5.63;5.05;;;20.20;71.40;;;;;;5077319;28;20117;-72
2021/06/27 00:12:59;;;;;;;5.40;4.90;;;20.20;71.40;;;;;;5078045;28;20113;-73
2021/06/27 00:15:30;;;;;;;6.30;5.18;;;20.20;71.40;;;;;;5078002;28;20040;-73
2021/06/27 00:17:57;;;;;;;6.00;5.40;;;20.20;71.40;;;;;;5077574;28;20047;-74
2021/06/27 00:20:26;;;;;;;6.32;5.72;;;20.20;71.40;;;;;;5077524;28;20036;-73
2021/06/27 00:22:51;;;;;;;5.72;4.90;;;20.20;71.40;;;;;;5078007;28;20040;-73
2021/06/27 00:25:19;;;;;;;5.47;4.95;;;20.10;71.40;;;;;;5077332;28;20379;-73
2021/06/27 00:27:50;;;;;;;5.45;4.93;;;20.20;71.40;;;;;;5077471;28;20040;-73
2021/06/27 00:30:18;;;;;;;6.78;5.10;;;20.20;71.30;;;;;;5076349;28;20470;-73
2021/06/27 00:32:44;;;;;;;6.00;5.03;;;20.10;71.30;;;;;;5077401;28;20397;-74
2021/06/27 00:35:12;;;;;;;6.15;4.68;;;20.10;71.20;;;;;;5077416;28;20040;-74
2021/06/27 00:37:38;;;;;;;5.00;4.55;;;20.20;71.20;;;;;;5077749;28;20127;-74
2021/06/27 00:40:07;;;;;;;5.10;4.57;;;20.10;71.10;;;;;;5077127;28;20115;-75
2021/06/27 00:42:33;;;;;;;5.30;4.75;;;20.10;71.10;;;;;;5077123;28;20054;-73
2021/06/27 00:45:00;;;;;;;5.75;4.65;;;20.10;71.10;;;;;;5077159;28;20047;-74
2021/06/27 00:47:28;;;;;;;6.18;4.85;;;20.10;71.10;;;;;;5077481;28;20068;-73
2021/06/27 00:49:54;;;;;;;5.70;5.10;;;20.10;71.10;;;;;;5077423;28;20053;-74
2021/06/27 00:52:20;;;;;;;5.53;4.70;;;20.10;71.10;;;;;;5077126;28;20486;-73
2021/06/27 00:54:46;;;;;;;6.80;4.90;;;20.10;71.10;;;;;;5076747;28;20109;-74
2021/06/27 00:57:12;;;;;;;5.10;4.60;;;20.10;71.10;;;;;;5077545;28;20118;-73
2021/06/27 00:59:38;;;;;;;5.57;4.40;;;20.10;71.10;;;;;;5077514;28;20051;-73
2021/06/27 01:02:04;;;;;;;5.07;4.38;;;20.10;71.10;;;;;;5092484;28;20517;-74
2021/06/27 01:04:31;;;;;;;5.30;4.78;;;20.10;71.10;;;;;;5077004;28;20165;-73
2021/06/27 01:06:57;;;;;;;5.53;4.97;;;20.10;71.10;;;;;;5076626;28;20459;-72
2021/06/27 01:09:23;;;;;;;5.82;5.18;;;20.10;71.10;;;;;;5076590;28;20048;-73
2021/06/27 01:11:49;;;;;;;5.95;4.97;;;20.20;71.20;;;;;;5076655;28;20045;-74
2021/06/27 01:14:16;;;;;;;5.35;4.78;;;20.10;71.10;;;;;;5076479;28;20066;-73
2021/06/27 01:16:42;;;;;;;5.15;4.65;;;20.10;71.10;;;;;;5076729;28;20048;-74
2021/06/27 01:19:08;;;;;;;5.55;5.05;;;20.10;71.10;;;;;;5076602;28;20097;-74
2021/06/27 01:21:36;;;;;;;5.85;5.20;;;20.10;71.20;;;;;;5077270;28;20063;-74
2021/06/27 01:24:03;;;;;;;5.25;4.75;;;20.10;71.20;;;;;;5076772;28;20152;-73
2021/06/27 01:26:29;;;;;;;5.88;4.60;;;20.10;71.20;;;;;;5076300;28;20048;-75
2021/06/27 01:28:56;;;;;;;6.90;5.03;;;20.10;71.20;;;;;;5076229;28;20041;-74
2021/06/27 01:31:24;;;;;;;5.05;4.53;;;20.10;71.20;;;;;;5076315;28;20047;-74
2021/06/27 01:33:51;;;;;;;6.38;4.68;;;20.10;71.20;;;;;;5076161;28;20033;-74
2021/06/27 01:36:17;;;;;;;6.25;4.63;;;20.10;71.20;;;;;;5075723;28;20344;-74
2021/06/27 01:38:42;;;;;;;5.93;5.15;;;20.10;71.20;;;;;;5075983;28;20045;-74
2021/06/27 01:41:09;;;;;;;5.25;4.75;;;20.10;71.20;;;;;;5076585;28;20375;-75
2021/06/27 01:43:35;;;;;;;5.70;4.90;;;20.10;71.20;;;;;;5075901;28;20044;-73
2021/06/27 01:46:02;;;;;;;6.07;4.60;;;20.10;71.10;;;;;;5075801;28;20109;-72
2021/06/27 01:48:30;;;;;;;5.07;4.57;;;20.10;71.10;;;;;;5076084;28;20120;-74
2021/06/27 01:50:58;;;;;;;5.55;4.80;;;20.10;71.20;;;;;;5075694;28;20045;-74
2021/06/27 01:53:27;;;;;;;5.97;4.75;;;20.00;71.10;;;;;;5075464;28;20367;-74
2021/06/27 01:56:04;;;;;;;5.57;4.72;;;20.10;71.20;;;;;;5076394;28;20052;-73
2021/06/27 01:58:36;;;;;;;5.50;4.60;;;20.10;71.20;;;;;;5076167;28;20056;-73
2021/06/27 02:01:04;;;;;;;5.28;4.78;;;20.10;71.20;;;;;;5075837;28;20048;-73
2021/06/27 02:03:30;;;;;;;6.45;4.70;;;20.10;71.20;;;;;;5075306;28;20083;-73
2021/06/27 02:05:55;;;;;;;5.78;4.97;;;20.00;71.20;;;;;;5075769;28;20417;-74
2021/06/27 02:08:21;;;;;;;5.63;5.03;;;20.00;71.20;;;;;;5075449;28;20491;-73
2021/06/27 02:10:47;;;;;;;5.88;4.60;;;20.00;71.10;;;;;;5075556;28;20044;-74
2021/06/27 02:13:13;;;;;;;5.15;4.65;;;20.00;71.20;;;;;;5075692;28;20048;-73
2021/06/27 02:15:39;;;;;;;5.50;4.75;;;20.00;71.20;;;;;;5091381;28;20076;-74
2021/06/27 02:18:20;;;;;;;5.00;4.50;;;20.00;71.20;;;;;;5075221;28;20120;-73
2021/06/27 02:20:48;;;;;;;5.47;4.57;;;20.00;71.20;;;;;;5075509;28;20048;-74
2021/06/27 02:23:14;;;;;;;6.80;4.65;;;20.00;71.20;;;;;;5074956;28;20048;-73
2021/06/27 02:25:42;;;;;;;5.55;4.95;;;20.00;71.20;;;;;;5075525;28;20068;-74
2021/06/27 02:28:07;;;;;;;5.63;4.95;;;20.00;71.30;;;;;;5091157;28;20052;-72
2021/06/27 02:30:34;;;;;;;5.57;4.68;;;20.00;71.30;;;;;;5074951;28;20115;-75
2021/06/27 02:33:01;;;;;;;4.78;3.97;;;20.00;71.30;;;;;;5075570;28;20056;-73
2021/06/27 02:35:27;;;;;;;5.20;4.70;;;20.00;71.30;;;;;;5075522;28;20040;-72
2021/06/27 02:37:54;;;;;;;5.55;4.90;;;20.00;71.30;;;;;;5075292;28;20123;-71
2021/06/27 02:40:21;;;;;;;6.25;4.50;;;20.00;71.30;;;;;;5075163;28;20060;-72
2021/06/27 02:42:47;;;;;;;5.32;4.53;;;20.00;71.30;;;;;;5075069;28;20443;-74
2021/06/27 02:45:13;;;;;;;5.40;4.57;;;19.90;71.30;;;;;;5075201;28;20439;-73
2021/06/27 02:47:40;;;;;;;7.13;4.95;;;20.00;71.40;;;;;;5075080;28;20040;-73
2021/06/27 02:50:10;;;;;;;5.25;4.75;;;20.00;71.40;;;;;;5075123;28;20071;-74
2021/06/27 02:52:36;;;;;;;6.03;4.72;;;19.90;71.30;;;;;;5075107;28;20362;-73
2021/06/27 02:55:03;;;;;;;4.72;4.22;;;20.00;71.30;;;;;;5075288;28;20036;-75
2021/06/27 02:57:29;;;;;;;6.38;4.55;;;20.00;71.30;;;;;;5079385;28;20059;-74
2021/06/27 02:59:56;;;;;;;5.20;4.60;;;20.00;71.30;;;;;;5079262;28;20068;-74
2021/06/27 03:02:22;;;;;;;5.03;4.53;;;20.00;71.30;;;;;;5079115;28;20076;-74
2021/06/27 03:04:48;;;;;;;4.97;4.43;;;19.90;71.20;;;;;;5078944;28;20053;-72
2021/06/27 03:07:14;;;;;;;5.80;4.63;;;19.90;71.20;;;;;;5078869;28;20371;-74
2021/06/27 03:09:40;;;;;;;5.90;5.03;;;19.90;71.20;;;;;;5079015;28;20044;-75
2021/06/27 03:12:07;;;;;;;5.22;4.72;;;20.00;71.30;;;;;;5078912;28;20048;-74
2021/06/27 03:14:33;;;;;;;5.20;4.45;;;20.00;71.30;;;;;;5079173;28;20036;-75
2021/06/27 03:16:59;;;;;;;5.45;4.82;;;20.00;71.20;;;;;;5078992;28;20141;-74
2021/06/27 03:19:25;;;;;;;5.85;4.50;;;19.90;71.10;;;;;;5078924;28;20048;-75
2021/06/27 03:21:50;;;;;;;5.78;4.70;;;19.90;71.10;;;;;;5078937;28;20048;-75
2021/06/27 03:24:16;;;;;;;4.93;4.28;;;20.00;71.20;;;;;;5078204;28;20044;-73
2021/06/27 03:26:42;;;;;;;5.47;4.57;;;19.90;71.10;;;;;;5078802;28;20455;-74
2021/06/27 03:29:08;;;;;;;5.90;4.93;;;19.90;71.10;;;;;;5078937;28;20059;-74
2021/06/27 03:31:35;;;;;;;4.72;4.22;;;19.90;71.10;;;;;;5078144;28;20047;-75
2021/06/27 03:34:01;;;;;;;5.13;4.53;;;19.90;71.10;;;;;;5078834;28;20123;-73
2021/06/27 03:36:27;;;;;;;5.18;4.50;;;19.90;71.10;;;;;;5078632;28;20072;-72
2021/06/27 03:39:10;;;;;;;5.32;4.30;;;19.90;71.10;;;;;;5078494;28;20521;-74
2021/06/27 03:41:40;;;;;;;6.40;4.85;;;19.90;71.10;;;;;;5078229;28;20119;-73
2021/06/27 03:44:07;;;;;;;5.85;5.07;;;19.90;71.20;;;;;;5078103;28;20063;-74
2021/06/27 03:46:33;;;;;;;5.30;4.40;;;19.90;71.20;;;;;;5078855;28;20052;-73
2021/06/27 03:48:59;;;;;;;5.78;4.72;;;19.90;71.20;;;;;;5078591;28;20048;-73
2021/06/27 03:51:26;;;;;;;6.35;5.20;;;19.90;71.20;;;;;;5078414;28;20048;-74
2021/06/27 03:53:53;;;;;;;6.45;5.60;;;19.90;71.20;;;;;;5077951;28;20105;-73
2021/06/27 03:56:20;;;;;;;5.03;4.53;;;19.90;71.20;;;;;;5077760;28;20049;-74
2021/06/27 03:58:47;;;;;;;5.88;5.10;;;19.90;71.20;;;;;;5078049;28;20044;-74
2021/06/27 04:01:14;;;;;;;7.07;5.40;;;19.90;71.20;;;;;;5077982;28;20049;-73
2021/06/27 04:03:40;;;;;;;5.90;5.18;;;19.90;71.30;;;;;;5077778;28;20053;-75
2021/06/27 04:06:06;;;;;;;5.68;5.05;;;19.90;71.30;;;;;;5077984;28;20048;-73
2021/06/27 04:08:34;;;;;;;5.80;4.95;;;19.80;71.30;;;;;;5077455;28;20045;-74
2021/06/27 04:11:01;;;;;;;5.85;5.10;;;19.80;71.30;;;;;;5078275;28;20044;-73
2021/06/27 04:13:28;;;;;;;5.80;5.20;;;19.90;71.40;;;;;;5078092;28;20079;-72
2021/06/27 04:15:55;;;;;;;5.93;5.32;;;19.90;71.30;;;;;;5077780;28;20131;-72
2021/06/27 04:18:22;;;;;;;6.28;5.50;;;19.90;71.40;;;;;;5077951;28;20128;-73
2021/06/27 04:20:48;;;;;;;7.68;5.78;;;19.90;71.40;;;;;;5077616;28;20474;-73
2021/06/27 04:23:14;;;;;;;6.78;5.28;;;19.80;71.30;;;;;;5077519;28;20127;-73
2021/06/27 04:25:41;;;;;;;6.60;5.25;;;19.90;71.40;;;;;;5077298;28;20086;-74
2021/06/27 04:28:07;;;;;;;5.53;4.78;;;19.80;71.40;;;;;;5077813;28;20452;-74
2021/06/27 04:30:37;;;;;;;5.72;4.70;;;19.90;71.40;;;;;;5077768;28;20189;-74
2021/06/27 04:33:23;;;;;;;7.47;5.93;;;19.80;71.40;;;;;;5076621;28;20462;-74
2021/06/27 04:35:49;;;;;;;5.93;5.10;;;19.80;71.40;;;;;;5077836;28;20052;-73
2021/06/27 04:38:18;;;;;;;5.60;4.50;;;19.80;71.40;;;;;;5077006;28;20055;-74
2021/06/27 04:40:45;;;;;;;6.28;5.03;;;19.80;71.40;;;;;;5078028;28;20048;-74
2021/06/27 04:43:12;;;;;;;5.40;4.63;;;19.80;71.40;;;;;;5076899;28;20452;-73
2021/06/27 04:45:40;;;;;;;5.32;4.30;;;19.80;72.00;;;;;;5077096;28;20047;-75
2021/06/27 04:48:07;;;;;;;5.50;4.60;;;19.80;71.40;;;;;;5077354;28;20057;-74
2021/06/27 04:50:33;;;;;;;6.32;4.78;;;19.80;71.30;;;;;;5077008;28;20127;-74
2021/06/27 04:53:00;;;;;;;5.28;4.50;;;19.80;71.30;;;;;;5077279;28;20048;-73
2021/06/27 04:55:26;;;;;;;4.35;3.83;;;19.90;71.90;;;;;;5077626;28;20041;-74
2021/06/27 04:57:52;;;;;;;5.03;4.30;;;19.90;71.30;;;;;;5077035;28;20135;-75
2021/06/27 05:00:18;;;;;;;4.88;4.32;;;19.80;71.20;;;;;;5077175;28;20072;-74
2021/06/27 05:02:44;;;;;;;5.30;3.95;;;19.80;71.20;;;;;;5076917;28;20049;-74
2021/06/27 05:05:11;;;;;;;4.68;4.03;;;19.90;71.20;;;;;;5076489;28;20088;-75
2021/06/27 05:07:37;;;;;;;5.53;3.90;;;19.80;71.20;;;;;;5077224;28;20074;-75
2021/06/27 05:10:04;;;;;;;4.85;4.15;;;19.90;71.10;;;;;;5076767;28;20040;-73
2021/06/27 05:12:30;;;;;;;4.38;3.97;;;19.90;71.70;;;;;;5076786;28;20044;-74
2021/06/27 05:14:55;;;;;;;4.90;4.40;;;19.90;71.10;;;;;;5076338;28;20051;-74
2021/06/27 05:17:21;;;;;;;4.13;3.72;;;19.90;71.20;;;;;;5076776;28;20097;-73
2021/06/27 05:19:47;;;;;;;4.28;3.67;;;19.90;71.10;;;;;;5075754;28;20067;-74
2021/06/27 05:22:13;;;;;;;4.00;3.60;;;19.90;71.10;;;;;;5076283;28;20193;-73
2021/06/27 05:24:40;;;;;;;6.65;3.70;;;19.90;71.10;;;;;;5076652;28;20119;-73
2021/06/27 05:27:06;;;;;;;4.15;3.50;;;19.90;71.10;;;;;;5076291;28;20119;-74
2021/06/27 05:29:34;;;;;;;4.97;3.70;;;19.90;71.10;;;;;;5076326;28;20059;-73
2021/06/27 05:32:00;;;;;;;4.90;4.13;;;19.80;71.10;;;;;;5076131;28;20127;-73
2021/06/27 05:34:29;;;;;;;4.53;3.67;;;19.90;71.10;;;;;;5075871;28;20460;-73
2021/06/27 05:36:55;;;;;;;3.85;3.45;;;19.90;71.10;;;;;;5076505;28;20057;-74
2021/06/27 05:39:21;;;;;;;3.80;3.33;;;19.90;71.10;;;;;;5075971;28;20348;-73
2021/06/27 05:41:47;;;;;;;4.03;3.45;;;19.90;71.20;;;;;;5076028;28;20063;-73
2021/06/27 05:44:12;;;;;;;4.93;3.45;;;19.90;71.10;;;;;;5076250;28;20072;-73
2021/06/27 05:46:38;;;;;;;4.00;3.42;;;19.90;71.20;;;;;;5075435;28;20045;-73
2021/06/27 05:49:05;;;;;;;3.88;3.47;;;19.90;71.20;;;;;;5076249;28;20410;-74
2021/06/27 05:51:32;;;;;;;4.18;3.55;;;19.90;71.30;;;;;;5076310;28;20044;-73
2021/06/27 05:53:59;;;;;;;3.38;2.80;;;19.90;71.30;;;;;;5076151;28;20153;-74
2021/06/27 05:56:24;;;;;;;3.92;3.10;;;19.90;71.30;;;;;;5076020;28;20068;-73
2021/06/27 05:58:50;;;;;;;3.70;2.90;;;19.90;71.30;;;;;;5075891;28;20044;-73
2021/06/27 06:01:18;;;;;;;3.50;3.20;;;19.90;71.30;;;;;;5075608;28;20321;-76
2021/06/27 06:03:44;;;;;;;4.50;3.20;;;19.90;71.30;;;;;;5075359;28;20135;-74
2021/06/27 06:06:12;;;;;;;3.30;3.00;;;19.90;71.30;;;;;;5075888;28;20436;-74
2021/06/27 06:08:42;;;;;;;3.95;3.35;;;19.90;71.30;;;;;;5075810;28;20068;-74
2021/06/27 06:11:09;;;;;;;3.95;3.42;;;19.90;71.20;;;;;;5075675;28;20127;-72
2021/06/27 06:13:35;;;;;;;5.35;3.42;;;19.90;71.30;;;;;;5075457;28;20124;-73
2021/06/27 06:16:03;;;;;;;3.90;3.60;;;19.90;71.20;;;;;;5075408;28;20121;-73
2021/06/27 06:18:29;;;;;;;4.03;3.38;;;20.00;71.30;;;;;;5075865;28;20049;-76
2021/06/27 06:20:55;;;;;;;3.70;3.40;;;20.00;71.20;;;;;;5075498;28;20408;-75
2021/06/27 06:23:21;;;;;;;3.80;3.40;;;20.00;71.10;;;;;;5075248;28;20072;-72
2021/06/27 06:25:47;;;;;;;3.45;3.15;;;20.00;71.00;;;;;;5076112;28;20098;-74
2021/06/27 06:28:12;;;;;;;3.83;2.75;;;20.00;71.00;;;;;;5075377;28;20170;-72
2021/06/27 06:30:38;;;;;;;3.25;2.80;;;20.00;71.10;;;;;;5074701;28;20043;-73
2021/06/27 06:33:10;;;;;;;4.15;3.10;;;20.00;71.00;;;;;;5075182;28;20094;-74
2021/06/27 06:35:37;;;;;;;3.38;3.05;;;20.10;71.10;;;;;;5091098;28;20068;-73
2021/06/27 06:38:03;;;;;;;3.42;2.88;;;20.10;71.10;;;;;;5075279;28;20436;-73
2021/06/27 06:40:28;;;;;;;3.15;2.70;;;20.10;71.10;;;;;;5075274;28;20040;-73
2021/06/27 06:42:54;;;;;;;2.70;2.20;;;20.10;71.00;;;;;;5076007;28;20044;-72
2021/06/27 06:45:20;;;;;;;2.60;2.40;;;20.10;71.00;;;;;;5075262;28;20048;-74
2021/06/27 06:47:46;;;;;;;2.53;2.33;;;20.10;71.00;;;;;;5075105;28;20173;-73
2021/06/27 06:50:11;;;;;;;2.40;2.13;;;20.10;71.00;;;;;;5075159;28;20502;-73
2021/06/27 06:52:37;;;;;;;3.15;2.67;;;20.10;71.00;;;;;;5075091;28;20114;-74
2021/06/27 06:55:04;;;;;;;2.70;2.50;;;20.10;70.90;;;;;;5075246;28;20139;-74
2021/06/27 06:57:30;;;;;;;3.25;2.70;;;20.20;71.00;;;;;;5075657;28;20054;-73
2021/06/27 06:59:55;;;;;;;3.22;2.30;;;20.10;70.90;;;;;;5074848;28;20040;-73
2021/06/27 07:02:21;;;;;;;3.10;2.78;;;20.20;71.00;;;;;;5075006;28;20072;-73
2021/06/27 07:04:47;;;;;;;3.58;2.30;;;20.20;71.00;;;;;;5075276;28;20095;-73
2021/06/27 07:07:13;;;;;;;2.75;2.15;;;20.20;71.00;;;;;;5075107;28;20094;-73
2021/06/27 07:09:38;;;;;;;2.95;2.65;;;20.20;71.00;;;;;;5074912;28;20040;-74
2021/06/27 07:12:05;;;;;;;3.25;2.67;;;20.20;71.00;;;;;;5074892;28;20442;-73
2021/06/27 07:14:30;;;;;;;3.17;2.45;;;20.30;71.10;;;;;;5074739;28;20048;-74
2021/06/27 07:16:56;;;;;;;2.50;2.30;;;20.20;71.00;;;;;;5074814;28;20059;-73
2021/06/27 07:19:22;;;;;;;2.88;2.47;;;20.20;71.10;;;;;;5075109;28;20045;-74
2021/06/27 07:21:48;;;;;;;2.72;2.10;;;20.30;71.20;;;;;;5075323;28;20041;-74
2021/06/27 07:24:14;;;;;;;2.80;2.50;;;20.30;71.20;;;;;;5091133;28;20049;-75
2021/06/27 07:26:39;;;;;;;3.53;2.78;;;20.30;71.30;;;;;;5074545;28;20517;-73
2021/06/27 07:29:05;;;;;;;2.22;2.03;;;20.30;71.40;;;;;;5074759;28;20064;-75
2021/06/27 07:31:31;;;;;;;2.95;2.58;;;20.30;71.40;;;;;;5074767;28;20045;-73
2021/06/27 07:33:57;;;;;;;2.90;2.60;;;20.30;71.40;;;;;;5074532;28;20052;-74
2021/06/27 07:36:22;;;;;;;2.50;2.30;;;20.40;71.50;;;;;;5074850;28;20058;-73
2021/06/27 07:38:48;;;;;;;2.60;2.22;;;20.30;71.60;;;;;;5074831;28;20044;-74
2021/06/27 07:41:14;;;;;;;3.40;2.25;;;20.40;71.60;;;;;;5075300;28;20051;-74
2021/06/27 07:43:40;;;;;;;2.72;2.50;;;20.40;71.60;;;;;;5077231;28;20091;-73
2021/06/27 07:46:07;;;;;;;2.78;2.42;;;20.40;71.70;;;;;;5078482;28;20501;-74
2021/06/27 07:48:32;;;;;;;2.53;2.20;;;20.40;71.70;;;;;;5077566;28;20099;-74
2021/06/27 07:50:59;;;;;;;2.42;2.15;;;20.40;71.70;;;;;;5078341;28;20040;-74
2021/06/27 07:53:25;;;;;;;2.75;2.35;;;20.40;71.70;;;;;;5078506;28;20047;-74
2021/06/27 07:55:52;;;;;;;2.58;2.35;;;20.40;71.80;;;;;;5078192;28;20072;-74
2021/06/27 07:58:18;;;;;;;2.60;2.40;;;20.40;71.80;;;;;;5078370;28;20083;-73
2021/06/27 08:00:44;;;;;;;2.72;2.25;;;20.40;71.80;;;;;;5078023;28;20048;-73
2021/06/27 08:03:09;;;;;;;3.45;2.25;;;20.40;71.80;;;;;;5078143;28;20379;-75
2021/06/27 08:05:35;;;;;;;2.88;2.40;;;20.40;71.90;;;;;;5077689;28;20170;-72
2021/06/27 08:08:01;;;;;;;2.40;2.20;;;20.40;72.50;;;;;;5077955;28;20043;-75
2021/06/27 08:10:27;;;;;;;2.28;2.08;;;20.40;71.90;;;;;;5077993;28;20048;-75
2021/06/27 08:12:53;;;;;;;2.75;2.40;;;20.40;71.90;;;;;;5077732;28;20056;-73
2021/06/27 08:15:19;;;;;;;2.28;2.08;;;20.40;71.90;;;;;;5077798;28;20044;-73
2021/06/27 08:17:47;;;;;;;2.75;2.50;;;20.40;71.90;;;;;;5077602;28;20036;-74
2021/06/27 08:20:13;;;;;;;3.03;2.75;;;20.50;72.00;;;;;;5077878;28;20055;-73
2021/06/27 08:22:39;;;;;;;2.95;2.70;;;20.50;72.00;;;;;;5078291;28;20049;-74
2021/06/27 08:25:06;;;;;;;2.75;2.33;;;20.50;72.00;;;;;;5077342;28;20083;-74
2021/06/27 08:27:32;;;;;;;3.00;2.63;;;20.50;72.10;;;;;;5077235;28;20332;-74
2021/06/27 08:29:58;;;;;;;2.95;2.65;;;20.50;72.10;;;;;;5077680;28;20052;-75
2021/06/27 08:32:24;;;;;;;2.67;2.38;;;20.50;72.10;;;;;;5077554;28;20045;-74
2021/06/27 08:34:50;;;;;;;3.25;2.80;;;20.50;72.20;;;;;;5077528;28;20032;-72
2021/06/27 08:37:15;;;;;;;3.03;2.72;;;20.50;72.20;;;;;;5077541;28;20383;-73
2021/06/27 08:39:41;;;;;;;3.15;2.60;;;20.50;72.30;;;;;;5077100;28;20208;-74
2021/06/27 08:42:07;;;;;;;3.10;2.50;;;20.60;72.30;;;;;;5077299;28;20110;-73
2021/06/27 08:44:34;;;;;;;2.60;2.40;;;20.60;72.90;;;;;;5077653;28;20124;-73
2021/06/27 08:47:02;;;;;;;3.00;2.30;;;20.60;72.30;;;;;;5077458;28;20041;-74
2021/06/27 08:49:29;;;;;;;2.47;2.28;;;20.60;72.30;;;;;;5076570;28;20041;-73
2021/06/27 08:51:58;;;;;;;3.58;2.90;;;20.60;72.40;;;;;;5077336;28;20049;-73
2021/06/27 08:54:24;;;;;;;3.05;2.75;;;20.60;72.40;;;;;;5077233;28;20059;-75
2021/06/27 08:56:50;;;;;;;2.42;2.22;;;20.60;72.30;;;;;;5077513;28;20087;-74
2021/06/27 08:59:16;;;;;;;3.38;2.60;;;20.60;72.30;;;;;;5076919;28;20072;-75
2021/06/27 09:01:42;;;;;;;3.88;3.10;;;20.70;72.40;;;;;;5092885;28;20049;-74
2021/06/27 09:04:07;;;;;;;2.90;2.60;;;20.70;72.40;;;;;;5076811;28;20068;-73
2021/06/27 09:06:39;;;;;;;2.75;2.55;;;20.70;72.40;;;;;;5076768;28;20075;-74
2021/06/27 09:09:22;;;;;;;3.00;2.70;;;20.70;72.50;;;;;;5077212;28;20053;-74
2021/06/27 09:11:59;;;;;;;2.95;2.65;;;20.70;72.40;;;;;;5076946;28;20040;-73
2021/06/27 09:14:33;;;;;;;3.15;2.85;;;20.70;72.40;;;;;;5076850;28;20037;-75
2021/06/27 09:17:09;;;;;;;2.78;2.58;;;20.70;72.40;;;;;;5076834;28;20052;-75
2021/06/27 09:20:04;;;;;;;3.13;2.63;;;20.70;72.40;;;;;;5076477;28;20111;-74
2021/06/27 09:22:49;;;;;;;3.30;2.83;;;20.70;72.40;;;;;;5075756;28;20056;-75
2021/06/27 09:25:26;;;;;;;3.20;2.90;;;20.70;72.40;;;;;;5076465;28;20044;-74
2021/06/27 09:28:05;;;;;;;3.17;2.88;;;20.70;72.30;;;;;;5076045;28;20541;-72
2021/06/27 09:30:57;;;;;;;2.53;2.33;;;20.70;72.40;;;;;;5076646;28;20052;-76
2021/06/27 09:33:27;;;;;;;3.83;2.95;;;20.70;72.30;;;;;;5075396;28;20067;-76
2021/06/27 09:35:56;;;;;;;3.85;3.15;;;20.70;72.30;;;;;;5076388;28;20055;-74
2021/06/27 09:38:42;;;;;;;3.53;2.67;;;20.70;72.30;;;;;;5076519;28;20071;-74
2021/06/27 09:41:24;;;;;;;3.10;2.80;;;20.80;72.40;;;;;;5076162;28;20044;-75
2021/06/27 09:43:50;;;;;;;3.38;3.00;;;20.70;72.30;;;;;;5076452;28;20040;-75
2021/06/27 09:46:16;;;;;;;3.45;3.15;;;20.80;72.30;;;;;;5075975;28;20059;-73
2021/06/27 09:49:03;;;;;;;3.08;2.70;;;20.70;72.30;;;;;;5075825;28;20059;-74
2021/06/27 09:51:31;;;;;;;3.42;3.13;;;20.80;72.50;;;;;;5076583;28;20041;-74
2021/06/27 09:53:57;;;;;;;3.75;3.30;;;20.80;72.50;;;;;;5076027;28;20051;-74
2021/06/27 09:56:24;;;;;;;3.33;2.85;;;20.80;72.40;;;;;;5076051;28;20041;-74
2021/06/27 09:58:59;;;;;;;3.28;2.97;;;20.80;72.40;;;;;;5075953;28;20124;-74
2021/06/27 10:01:26;;;;;;;3.25;2.92;;;20.80;72.50;;;;;;5075981;28;20048;-74
2021/06/27 10:03:55;;;;;;;3.28;2.95;;;20.80;72.50;;;;;;5075500;28;20044;-76
2021/06/27 10:06:23;;;;;;;3.10;2.83;;;20.80;72.40;;;;;;5075727;28;20056;-74
2021/06/27 10:08:49;;;;;;;3.30;2.85;;;20.90;72.40;;;;;;5075860;28;20052;-74
2021/06/27 10:11:23;;;;;;;3.33;3.03;;;20.80;72.40;;;;;;5075481;28;20052;-74
2021/06/27 10:13:51;;;;;;;3.17;2.78;;;20.90;72.40;;;;;;5075639;28;20128;-75
2021/06/27 10:16:33;;;;;;;3.28;2.97;;;20.80;72.20;;;;;;5075476;28;20057;-75
2021/06/27 10:19:00;;;;;;;2.95;2.65;;;20.90;72.40;;;;;;5075600;28;20060;-75
2021/06/27 10:21:28;;;;;;;3.15;2.85;;;20.90;72.30;;;;;;5076225;28;20051;-75
2021/06/27 10:23:55;;;;;;;3.28;2.97;;;20.90;72.30;;;;;;5075383;28;20116;-75
2021/06/27 10:26:24;;;;;;;3.58;2.75;;;20.80;72.20;;;;;;5075226;28;20040;-74
2021/06/27 10:28:52;;;;;;;3.70;3.30;;;20.90;72.30;;;;;;5075585;28;20052;-75
2021/06/27 10:31:20;;;;;;;3.45;3.15;;;20.90;72.30;;;;;;5074835;28;20429;-74
2021/06/27 10:33:46;;;;;;;3.72;3.42;;;20.90;72.30;;;;;;5075355;28;20058;-75
2021/06/27 10:36:16;;;;;;;3.45;3.15;;;20.90;72.20;;;;;;5075463;28;20479;-73
2021/06/27 10:38:48;;;;;;;3.08;2.78;;;20.90;72.20;;;;;;5075159;28;20044;-74
2021/06/27 10:41:14;;;;;;;3.05;2.75;;;20.90;72.20;;;;;;5075451;28;20041;-73
2021/06/27 10:44:13;;;;;;;3.10;2.80;;;20.90;72.20;;;;;;5075594;28;20052;-74
2021/06/27 10:46:43;;;;;;;3.55;3.00;;;20.90;72.20;;;;;;5063097;28;20048;-73
2021/06/27 10:49:31;;;;;;;4.00;3.55;;;20.90;72.10;;;;;;5075673;28;20093;-73
2021/06/27 10:52:09;;;;;;;3.40;3.10;;;20.90;72.30;;;;;;5075428;28;20044;-74
2021/06/27 10:54:39;;;;;;;2.88;2.60;;;20.90;72.20;;;;;;5075227;28;20048;-75
2021/06/27 10:57:06;;;;;;;2.92;2.63;;;20.90;72.10;;;;;;5075088;28;20052;-74
2021/06/27 10:59:38;;;;;;;2.85;2.65;;;20.90;72.00;;;;;;5074844;28;20064;-76
2021/06/27 11:02:24;;;;;;;3.25;2.95;;;20.90;72.00;;;;;;5074863;28;20113;-75
2021/06/27 11:04:52;;;;;;;2.88;2.65;;;20.90;72.00;;;;;;5075131;28;20072;-74
2021/06/27 11:07:35;;;;;;;3.13;2.83;;;20.90;71.90;;;;;;5075168;28;20044;-75
2021/06/27 11:10:21;;;;;;;3.28;2.97;;;20.90;72.00;;;;;;5075247;28;20048;-73
2021/06/27 11:12:59;;;;;;;3.40;2.90;;;20.90;72.00;;;;;;5075010;28;20111;-74
2021/06/27 11:15:27;;;;;;;2.95;2.47;;;20.90;72.00;;;;;;5074951;28;20036;-73
2021/06/27 11:18:12;;;;;;;3.50;3.20;;;21.00;72.00;;;;;;5076604;28;20040;-74
2021/06/27 11:20:47;;;;;;;2.97;2.67;;;21.00;72.00;;;;;;5079134;28;20045;-74
2021/06/27 11:23:13;;;;;;;4.10;2.80;;;21.00;72.10;;;;;;5078860;28;20446;-73
2021/06/27 11:25:42;;;;;;;3.00;2.80;;;20.90;71.90;;;;;;5078705;28;20079;-72
2021/06/27 11:28:20;;;;;;;3.13;2.83;;;20.90;71.90;;;;;;5078795;28;20099;-74
2021/06/27 11:30:46;;;;;;;3.25;2.95;;;20.90;71.90;;;;;;5079363;28;20097;-74
2021/06/27 11:33:20;;;;;;;2.92;2.67;;;21.00;71.90;;;;;;5078428;28;20048;-77
2021/06/27 11:35:46;;;;;;;3.15;2.85;;;21.00;71.90;;;;;;5078728;28;20189;-74
2021/06/27 11:38:44;;;;;;;3.42;3.03;;;20.90;71.80;;;;;;5078763;28;20052;-74
2021/06/27 11:41:22;;;;;;;2.70;2.50;;;21.00;71.90;;;;;;5078713;28;20040;-75
2021/06/27 11:44:11;;;;;;;3.25;2.95;;;21.00;71.80;;;;;;5078688;28;20048;-74
2021/06/27 11:46:38;;;;;;;3.33;2.90;;;21.00;71.80;;;;;;5078203;28;20036;-74
2021/06/27 11:49:08;;;;;;;3.17;2.88;;;21.00;71.70;;;;;;5078325;28;20459;-74
2021/06/27 11:51:38;;;;;;;4.32;2.88;;;21.00;71.70;;;;;;5078131;28;20037;-74
2021/06/27 11:54:05;;;;;;;2.85;2.60;;;21.00;71.70;;;;;;5094032;28;20045;-75
2021/06/27 11:57:03;;;;;;;3.28;2.60;;;21.00;71.70;;;;;;5078499;28;20044;-75
2021/06/27 11:59:40;;;;;;;2.90;2.67;;;21.00;71.70;;;;;;5078312;28;20048;-75
2021/06/27 12:02:11;;;;;;;3.42;3.10;;;21.00;71.60;;;;;;5078328;28;20067;-73
2021/06/27 12:04:41;;;;;;;3.05;2.75;;;21.00;71.60;;;;;;5077409;28;20050;-75
2021/06/27 12:07:36;;;;;;;2.90;2.70;;;21.00;71.70;;;;;;5078105;28;20079;-75
2021/06/27 12:10:17;;;;;;;3.10;2.35;;;21.00;71.70;;;;;;5077989;28;20070;-75
2021/06/27 12:12:49;;;;;;;2.97;2.78;;;21.00;71.60;;;;;;5077691;28;20049;-73
2021/06/27 12:15:15;;;;;;;2.72;2.53;;;21.00;71.60;;;;;;5077727;28;20055;-72
2021/06/27 12:17:41;;;;;;;2.88;2.67;;;21.00;71.60;;;;;;5078088;28;20048;-75
2021/06/27 12:20:08;;;;;;;3.08;2.78;;;21.00;71.70;;;;;;5077926;28;20052;-74
2021/06/27 12:22:56;;;;;;;3.38;3.08;;;21.00;71.60;;;;;;5077824;28;20094;-75
2021/06/27 12:25:30;;;;;;;2.80;2.60;;;21.00;71.70;;;;;;5093314;28;20143;-76
2021/06/27 12:27:59;;;;;;;2.97;2.72;;;21.00;71.60;;;;;;5077186;28;20036;-76
2021/06/27 12:30:47;;;;;;;3.67;3.00;;;21.00;71.60;;;;;;5077298;28;20048;-75
2021/06/27 12:33:23;;;;;;;2.97;2.72;;;21.00;71.60;;;;;;5077883;28;20145;-75
2021/06/27 12:35:56;;;;;;;3.30;3.00;;;21.00;71.50;;;;;;5077876;28;20133;-74
2021/06/27 12:38:23;;;;;;;3.13;2.90;;;21.00;71.50;;;;;;5077707;28;20333;-75
2021/06/27 12:40:51;;;;;;;2.97;2.70;;;21.00;71.50;;;;;;5077475;28;20044;-74
2021/06/27 12:43:47;;;;;;;3.28;2.50;;;21.00;71.70;;;;;;5077499;28;20397;-75
2021/06/27 12:46:15;;;;;;;2.70;2.50;;;21.00;71.60;;;;;;5068759;28;20064;-74
2021/06/27 12:48:43;;;;;;;2.75;2.55;;;21.00;71.70;;;;;;5077541;28;20053;-74
2021/06/27 12:51:30;;;;;;;3.20;2.90;;;21.00;71.70;;;;;;5077019;28;20072;-74
2021/06/27 12:54:07;;;;;;;3.05;2.80;;;21.00;71.70;;;;;;5092585;28;20048;-76
2021/06/27 12:56:47;;;;;;;3.53;2.97;;;21.00;71.70;;;;;;5077273;28;20040;-75